sensor_id;sensor_type;location;lat;lon;timestamp;pressure;altitude;pressure_sealevel;temperature;humidity
72892;BME280;61032;50.782;6.818;2022-12-04T00:00:49;100587.03;;;3.88;70.72
72892;BME280;61032;50.782;6.818;2022-12-04T00:01:50;100585.13;;;3.89;70.97
72892;BME280;61032;50.782;6.818;2022-12-04T00:02:50;100588.94;;;3.88;70.64
72892;BME280;61032;50.782;6.818;2022-12-04T00:03:52;100584.00;;;3.95;70.69
72892;BME280;61032;50.782;6.818;2022-12-04T00:04:55;100585.03;;;3.99;70.28
72892;BME280;61032;50.782;6.818;2022-12-04T00:06:10;100584.19;;;4.03;70.50
72892;BME280;61032;50.782;6.818;2022-12-04T00:07:11;100582.66;;;3.92;70.46
72892;BME280;61032;50.782;6.818;2022-12-04T00:08:11;100591.84;;;3.96;69.74
72892;BME280;61032;50.782;6.818;2022-12-04T00:09:11;100582.06;;;3.95;70.26
72892;BME280;61032;50.782;6.818;2022-12-04T00:10:12;100588.09;;;3.92;71.08
72892;BME280;61032;50.782;6.818;2022-12-04T00:11:14;100577.44;;;3.96;70.95
72892;BME280;61032;50.782;6.818;2022-12-04T00:12:15;100584.22;;;3.98;70.83
72892;BME280;61032;50.782;6.818;2022-12-04T00:13:15;100588.00;;;4.02;70.54
72892;BME280;61032;50.782;6.818;2022-12-04T00:14:15;100582.56;;;4.02;69.86
72892;BME280;61032;50.782;6.818;2022-12-04T00:15:16;100580.31;;;4.09;70.46
72892;BME280;61032;50.782;6.818;2022-12-04T00:16:19;100585.22;;;4.12;70.15
72892;BME280;61032;50.782;6.818;2022-12-04T00:17:20;100591.47;;;4.13;70.25
72892;BME280;61032;50.782;6.818;2022-12-04T00:18:20;100584.16;;;4.08;70.29
72892;BME280;61032;50.782;6.818;2022-12-04T00:19:21;100590.69;;;4.07;70.20
72892;BME280;61032;50.782;6.818;2022-12-04T00:20:21;100583.59;;;4.11;69.70
72892;BME280;61032;50.782;6.818;2022-12-04T00:21:23;100583.81;;;4.15;69.63
72892;BME280;61032;50.782;6.818;2022-12-04T00:22:24;100590.13;;;4.10;69.50
72892;BME280;61032;50.782;6.818;2022-12-04T00:23:24;100595.06;;;4.03;69.84
72892;BME280;61032;50.782;6.818;2022-12-04T00:24:24;100590.75;;;3.97;70.67
72892;BME280;61032;50.782;6.818;2022-12-04T00:25:25;100584.75;;;4.00;70.33
72892;BME280;61032;50.782;6.818;2022-12-04T00:26:26;100590.16;;;4.05;70.11
72892;BME280;61032;50.782;6.818;2022-12-04T00:27:27;100594.53;;;4.01;70.50
72892;BME280;61032;50.782;6.818;2022-12-04T00:28:27;100589.94;;;3.97;70.17
72892;BME280;61032;50.782;6.818;2022-12-04T00:29:27;100586.75;;;3.90;70.94
72892;BME280;61032;50.782;6.818;2022-12-04T00:30:30;100588.63;;;3.94;70.40
72892;BME280;61032;50.782;6.818;2022-12-04T00:31:30;100580.41;;;3.99;70.18
72892;BME280;61032;50.782;6.818;2022-12-04T00:32:30;100585.69;;;3.86;70.61
72892;BME280;61032;50.782;6.818;2022-12-04T00:33:31;100583.19;;;3.94;71.42
72892;BME280;61032;50.782;6.818;2022-12-04T00:34:31;100585.03;;;3.99;70.49
72892;BME280;61032;50.782;6.818;2022-12-04T00:35:31;100580.94;;;4.01;69.90
72892;BME280;61032;50.782;6.818;2022-12-04T00:36:32;100581.47;;;4.03;70.34
72892;BME280;61032;50.782;6.818;2022-12-04T00:37:32;100584.72;;;4.05;70.15
72892;BME280;61032;50.782;6.818;2022-12-04T00:38:33;100577.66;;;4.04;69.65
72892;BME280;61032;50.782;6.818;2022-12-04T00:39:34;100582.81;;;4.06;70.45
72892;BME280;61032;50.782;6.818;2022-12-04T00:40:34;100577.66;;;4.04;70.44
72892;BME280;61032;50.782;6.818;2022-12-04T00:41:35;100579.81;;;4.07;70.17
72892;BME280;61032;50.782;6.818;2022-12-04T00:42:35;100578.13;;;4.11;70.27
72892;BME280;61032;50.782;6.818;2022-12-04T00:43:35;100571.59;;;4.12;69.58
72892;BME280;61032;50.782;6.818;2022-12-04T00:44:35;100574.59;;;4.11;69.72
72892;BME280;61032;50.782;6.818;2022-12-04T00:45:36;100585.78;;;4.09;70.17
72892;BME280;61032;50.782;6.818;2022-12-04T00:46:36;100576.50;;;4.10;70.40
72892;BME280;61032;50.782;6.818;2022-12-04T00:47:36;100584.69;;;4.10;70.02
72892;BME280;61032;50.782;6.818;2022-12-04T00:48:37;100572.69;;;4.11;69.76
72892;BME280;61032;50.782;6.818;2022-12-04T00:49:37;100574.94;;;4.04;69.52
72892;BME280;61032;50.782;6.818;2022-12-04T00:50:37;100573.31;;;4.03;70.00
72892;BME280;61032;50.782;6.818;2022-12-04T00:51:38;100568.97;;;4.02;69.62
72892;BME280;61032;50.782;6.818;2022-12-04T00:52:38;100576.84;;;4.04;70.33
72892;BME280;61032;50.782;6.818;2022-12-04T00:53:38;100570.28;;;4.05;69.12
72892;BME280;61032;50.782;6.818;2022-12-04T00:54:39;100567.88;;;4.03;69.10
72892;BME280;61032;50.782;6.818;2022-12-04T00:55:40;100562.41;;;4.03;69.38
72892;BME280;61032;50.782;6.818;2022-12-04T00:56:41;100562.59;;;3.83;69.12
72892;BME280;61032;50.782;6.818;2022-12-04T00:57:41;100563.13;;;3.85;69.05
72892;BME280;61032;50.782;6.818;2022-12-04T00:58:41;100566.38;;;3.87;68.20
72892;BME280;61032;50.782;6.818;2022-12-04T00:59:41;100556.88;;;3.85;68.42
72892;BME280;61032;50.782;6.818;2022-12-04T01:00:42;100563.94;;;3.86;67.89
72892;BME280;61032;50.782;6.818;2022-12-04T01:01:42;100569.69;;;3.79;68.35
72892;BME280;61032;50.782;6.818;2022-12-04T01:02:43;100563.78;;;3.72;67.69
72892;BME280;61032;50.782;6.818;2022-12-04T01:03:46;100563.28;;;3.65;68.07
72892;BME280;61032;50.782;6.818;2022-12-04T01:04:46;100566.53;;;3.67;68.18
72892;BME280;61032;50.782;6.818;2022-12-04T01:05:47;100564.91;;;3.61;68.16
72892;BME280;61032;50.782;6.818;2022-12-04T01:06:47;100564.09;;;3.60;68.30
72892;BME280;61032;50.782;6.818;2022-12-04T01:07:47;100558.94;;;3.64;68.33
72892;BME280;61032;50.782;6.818;2022-12-04T01:08:49;100558.94;;;3.64;68.19
72892;BME280;61032;50.782;6.818;2022-12-04T01:09:49;100558.13;;;3.63;68.09
72892;BME280;61032;50.782;6.818;2022-12-04T01:10:49;100564.34;;;3.69;68.34
72892;BME280;61032;50.782;6.818;2022-12-04T01:11:50;100559.44;;;3.71;67.77
72892;BME280;61032;50.782;6.818;2022-12-04T01:12:50;100565.69;;;3.71;67.88
72892;BME280;61032;50.782;6.818;2022-12-04T01:13:53;100560.84;;;3.63;67.66
72892;BME280;61032;50.782;6.818;2022-12-04T01:14:53;100565.16;;;3.69;67.45
72892;BME280;61032;50.782;6.818;2022-12-04T01:15:53;100558.66;;;3.65;67.41
72892;BME280;61032;50.782;6.818;2022-12-04T01:16:54;100564.38;;;3.64;67.25
72892;BME280;61032;50.782;6.818;2022-12-04T01:17:54;100562.72;;;3.68;67.20
72892;BME280;61032;50.782;6.818;2022-12-04T01:18:54;100555.16;;;3.60;67.61
72892;BME280;61032;50.782;6.818;2022-12-04T01:19:55;100563.00;;;3.61;67.89
72892;BME280;61032;50.782;6.818;2022-12-04T01:20:55;100558.41;;;3.62;67.46
72892;BME280;61032;50.782;6.818;2022-12-04T01:21:55;100561.38;;;3.60;67.62
72892;BME280;61032;50.782;6.818;2022-12-04T01:22:55;100560.03;;;3.58;67.58
72892;BME280;61032;50.782;6.818;2022-12-04T01:23:56;100564.47;;;3.49;67.14
72892;BME280;61032;50.782;6.818;2022-12-04T01:24:57;100562.84;;;3.48;67.74
72892;BME280;61032;50.782;6.818;2022-12-04T01:25:57;100565.03;;;3.45;67.88
72892;BME280;61032;50.782;6.818;2022-12-04T01:26:58;100558.50;;;3.47;67.53
72892;BME280;61032;50.782;6.818;2022-12-04T01:27:58;100558.22;;;3.48;67.34
72892;BME280;61032;50.782;6.818;2022-12-04T01:28:58;100560.31;;;3.56;67.25
72892;BME280;61032;50.782;6.818;2022-12-04T01:29:59;100551.63;;;3.54;67.35
72892;BME280;61032;50.782;6.818;2022-12-04T01:31:03;100556.56;;;3.52;67.43
72892;BME280;61032;50.782;6.818;2022-12-04T01:32:04;100554.91;;;3.56;67.51
72892;BME280;61032;50.782;6.818;2022-12-04T01:33:04;100555.16;;;3.60;67.07
72892;BME280;61032;50.782;6.818;2022-12-04T01:34:05;100549.44;;;3.61;67.03
72892;BME280;61032;50.782;6.818;2022-12-04T01:35:06;100556.22;;;3.64;67.82
72892;BME280;61032;50.782;6.818;2022-12-04T01:36:10;100559.75;;;3.64;66.90
72892;BME280;61032;50.782;6.818;2022-12-04T01:37:11;100557.31;;;3.58;67.31
72892;BME280;61032;50.782;6.818;2022-12-04T01:38:11;100559.50;;;3.61;67.07
72892;BME280;61032;50.782;6.818;2022-12-04T01:39:11;100558.94;;;3.59;67.37
72892;BME280;61032;50.782;6.818;2022-12-04T01:40:13;100555.97;;;3.60;67.49
72892;BME280;61032;50.782;6.818;2022-12-04T01:41:16;100554.84;;;3.66;66.64
72892;BME280;61032;50.782;6.818;2022-12-04T01:42:16;100553.47;;;3.69;67.31
72892;BME280;61032;50.782;6.818;2022-12-04T01:43:18;100551.03;;;3.67;68.10
72892;BME280;61032;50.782;6.818;2022-12-04T01:44:24;100555.09;;;3.70;67.84
72892;BME280;61032;50.782;6.818;2022-12-04T01:45:33;100551.00;;;3.72;67.40
72892;BME280;61032;50.782;6.818;2022-12-04T01:46:36;100548.47;;;3.81;67.60
72892;BME280;61032;50.782;6.818;2022-12-04T01:47:37;100550.34;;;3.86;67.28
72892;BME280;61032;50.782;6.818;2022-12-04T01:48:48;100553.34;;;3.84;66.98
72892;BME280;61032;50.782;6.818;2022-12-04T01:49:49;100557.16;;;3.83;66.80
72892;BME280;61032;50.782;6.818;2022-12-04T01:50:54;100554.16;;;3.85;67.25
72892;BME280;61032;50.782;6.818;2022-12-04T01:52:04;100553.63;;;3.83;67.29
72892;BME280;61032;50.782;6.818;2022-12-04T01:53:06;100553.88;;;3.86;66.82
72892;BME280;61032;50.782;6.818;2022-12-04T01:54:10;100554.69;;;3.87;67.30
72892;BME280;61032;50.782;6.818;2022-12-04T01:55:13;100552.25;;;3.85;66.90
72892;BME280;61032;50.782;6.818;2022-12-04T01:56:13;100544.94;;;3.80;66.99
72892;BME280;61032;50.782;6.818;2022-12-04T01:57:17;100545.47;;;3.83;67.63
72892;BME280;61032;50.782;6.818;2022-12-04T01:58:21;100545.19;;;3.84;67.25
72892;BME280;61032;50.782;6.818;2022-12-04T01:59:28;100550.34;;;3.86;67.02
72892;BME280;61032;50.782;6.818;2022-12-04T02:00:30;100547.88;;;3.89;66.14
72892;BME280;61032;50.782;6.818;2022-12-04T02:01:37;100550.63;;;3.84;66.99
72892;BME280;61032;50.782;6.818;2022-12-04T02:02:42;100546.56;;;3.82;66.84
72892;BME280;61032;50.782;6.818;2022-12-04T02:03:42;100556.59;;;3.86;67.56
72892;BME280;61032;50.782;6.818;2022-12-04T02:04:44;100550.88;;;3.88;67.05
72892;BME280;61032;50.782;6.818;2022-12-04T02:05:45;100548.16;;;3.88;67.09
72892;BME280;61032;50.782;6.818;2022-12-04T02:06:45;100553.88;;;3.86;67.01
72892;BME280;61032;50.782;6.818;2022-12-04T02:07:47;100544.13;;;3.80;67.07
72892;BME280;61032;50.782;6.818;2022-12-04T02:08:49;100559.66;;;3.74;67.51
72892;BME280;61032;50.782;6.818;2022-12-04T02:09:49;100552.72;;;3.58;67.03
72892;BME280;61032;50.782;6.818;2022-12-04T02:12:23;100547.53;;;3.62;66.95
72892;BME280;61032;50.782;6.818;2022-12-04T02:15:14;100556.78;;;3.56;66.60
72892;BME280;61032;50.782;6.818;2022-12-04T02:17:54;100556.22;;;3.59;65.74
72892;BME280;61032;50.782;6.818;2022-12-04T02:19:07;100560.59;;;3.60;65.58
72892;BME280;61032;50.782;6.818;2022-12-04T02:20:30;100556.53;;;3.57;66.17
72892;BME280;61032;50.782;6.818;2022-12-04T02:21:35;100565.84;;;3.46;66.79
72892;BME280;61032;50.782;6.818;2022-12-04T02:25:44;100563.13;;;3.46;66.71
72892;BME280;61032;50.782;6.818;2022-12-04T02:26:55;100563.94;;;3.47;66.00
72892;BME280;61032;50.782;6.818;2022-12-04T02:28:04;100556.88;;;3.45;66.65
72892;BME280;61032;50.782;6.818;2022-12-04T02:29:33;100566.66;;;3.47;66.45
72892;BME280;61032;50.782;6.818;2022-12-04T02:30:39;100565.03;;;3.45;66.72
72892;BME280;61032;50.782;6.818;2022-12-04T02:31:50;100567.78;;;3.35;67.22
72892;BME280;61032;50.782;6.818;2022-12-04T02:34:33;100564.22;;;3.45;67.30
72892;BME280;61032;50.782;6.818;2022-12-04T02:35:41;100567.13;;;3.54;67.06
72892;BME280;61032;50.782;6.818;2022-12-04T02:36:51;100566.81;;;3.65;67.42
72892;BME280;61032;50.782;6.818;2022-12-04T02:37:59;100569.91;;;3.49;67.33
72892;BME280;61032;50.782;6.818;2022-12-04T02:39:11;100573.72;;;3.48;67.24
72892;BME280;61032;50.782;6.818;2022-12-04T02:40:21;100572.13;;;3.41;67.50
72892;BME280;61032;50.782;6.818;2022-12-04T02:41:26;100575.09;;;3.45;68.04
72892;BME280;61032;50.782;6.818;2022-12-04T02:42:40;100574.53;;;3.48;67.13
72892;BME280;61032;50.782;6.818;2022-12-04T02:43:52;100567.44;;;3.52;67.37
72892;BME280;61032;50.782;6.818;2022-12-04T02:44:59;100565.53;;;3.53;66.66
72892;BME280;61032;50.782;6.818;2022-12-04T02:46:12;100565.53;;;3.53;66.85
72892;BME280;61032;50.782;6.818;2022-12-04T02:47:19;100566.91;;;3.50;67.34
72892;BME280;61032;50.782;6.818;2022-12-04T02:48:22;100565.00;;;3.51;67.94
72892;BME280;61032;50.782;6.818;2022-12-04T02:49:30;100570.44;;;3.51;67.38
72892;BME280;61032;50.782;6.818;2022-12-04T02:50:33;100562.75;;;3.63;68.29
72892;BME280;61032;50.782;6.818;2022-12-04T02:51:37;100566.53;;;3.67;67.11
72892;BME280;61032;50.782;6.818;2022-12-04T02:52:45;100564.38;;;3.59;67.29
72892;BME280;61032;50.782;6.818;2022-12-04T02:53:50;100571.44;;;3.65;68.20
72892;BME280;61032;50.782;6.818;2022-12-04T02:54:56;100565.19;;;3.59;67.12
72892;BME280;61032;50.782;6.818;2022-12-04T02:56:04;100567.09;;;3.59;67.36
72892;BME280;61032;50.782;6.818;2022-12-04T02:57:10;100570.88;;;3.63;67.11
72892;BME280;61032;50.782;6.818;2022-12-04T02:58:16;100565.19;;;3.59;67.62
72892;BME280;61032;50.782;6.818;2022-12-04T02:59:28;100565.19;;;3.64;67.33
72892;BME280;61032;50.782;6.818;2022-12-04T03:00:31;100566.00;;;3.65;66.91
72892;BME280;61032;50.782;6.818;2022-12-04T03:01:35;100565.19;;;3.59;66.98
72892;BME280;61032;50.782;6.818;2022-12-04T03:02:50;100566.34;;;3.53;67.21
72892;BME280;61032;50.782;6.818;2022-12-04T03:05:03;100572.78;;;3.67;66.90
72892;BME280;61032;50.782;6.818;2022-12-04T03:06:09;100572.50;;;3.69;67.14
72892;BME280;61032;50.782;6.818;2022-12-04T03:07:53;100573.03;;;3.71;66.54
72892;BME280;61032;50.782;6.818;2022-12-04T03:08:51;100575.22;;;3.69;66.85
72892;BME280;61032;50.782;6.818;2022-12-04T03:09:57;100569.00;;;3.58;66.57
72892;BME280;61032;50.782;6.818;2022-12-04T03:10:59;100572.53;;;3.59;66.74
72892;BME280;61032;50.782;6.818;2022-12-04T03:12:25;100575.78;;;3.66;67.01
72892;BME280;61032;50.782;6.818;2022-12-04T03:13:35;100578.50;;;3.61;66.98
72892;BME280;61032;50.782;6.818;2022-12-04T03:14:48;100578.22;;;3.67;66.30
72892;BME280;61032;50.782;6.818;2022-12-04T03:15:59;100580.66;;;3.64;66.23
72892;BME280;61032;50.782;6.818;2022-12-04T03:17:06;100569.81;;;3.59;66.95
72892;BME280;61032;50.782;6.818;2022-12-04T03:18:32;100579.94;;;3.53;67.00
72892;BME280;61032;50.782;6.818;2022-12-04T03:19:38;100582.97;;;3.47;67.03
72892;BME280;61032;50.782;6.818;2022-12-04T03:20:41;100569.66;;;3.45;66.80
72892;BME280;61032;50.782;6.818;2022-12-04T03:21:54;100571.03;;;3.42;67.18
72892;BME280;61032;50.782;6.818;2022-12-04T03:22:59;100569.13;;;3.43;67.43
72892;BME280;61032;50.782;6.818;2022-12-04T03:25:07;100568.56;;;3.46;66.96
72892;BME280;61032;50.782;6.818;2022-12-04T03:26:17;100567.72;;;3.51;66.61
72892;BME280;61032;50.782;6.818;2022-12-04T03:27:38;100572.88;;;3.52;66.80
72892;BME280;61032;50.782;6.818;2022-12-04T03:28:58;100574.44;;;3.58;66.87
72892;BME280;61032;50.782;6.818;2022-12-04T03:30:11;100569.81;;;3.59;66.54
72892;BME280;61032;50.782;6.818;2022-12-04T03:31:14;100569.25;;;3.62;67.02
72892;BME280;61032;50.782;6.818;2022-12-04T03:32:32;100571.69;;;3.63;67.19
72892;BME280;61032;50.782;6.818;2022-12-04T03:33:42;100569.25;;;3.62;66.78
72892;BME280;61032;50.782;6.818;2022-12-04T03:35:51;100569.28;;;3.57;67.18
72892;BME280;61032;50.782;6.818;2022-12-04T03:36:56;100571.44;;;3.60;66.71
72892;BME280;61032;50.782;6.818;2022-12-04T03:39:34;100576.88;;;3.60;66.83
72892;BME280;61032;50.782;6.818;2022-12-04T03:40:42;100570.06;;;3.62;67.08
72892;BME280;61032;50.782;6.818;2022-12-04T03:41:54;100575.50;;;3.62;67.12
72892;BME280;61032;50.782;6.818;2022-12-04T03:43:01;100569.56;;;3.55;66.91
72892;BME280;61032;50.782;6.818;2022-12-04T03:44:09;100572.00;;;3.57;67.46
72892;BME280;61032;50.782;6.818;2022-12-04T03:45:19;100571.97;;;3.62;67.05
72892;BME280;61032;50.782;6.818;2022-12-04T03:46:38;100571.69;;;3.63;67.17
72892;BME280;61032;50.782;6.818;2022-12-04T03:48:04;100567.63;;;3.66;66.81
72892;BME280;61032;50.782;6.818;2022-12-04T03:49:23;100562.22;;;3.61;67.11
72892;BME280;61032;50.782;6.818;2022-12-04T03:50:34;100566.28;;;3.63;66.80
72892;BME280;61032;50.782;6.818;2022-12-04T03:53:14;100570.88;;;3.68;66.15
72892;BME280;61032;50.782;6.818;2022-12-04T03:54:22;100574.94;;;3.65;66.54
72892;BME280;61032;50.782;6.818;2022-12-04T03:55:33;100575.22;;;3.64;66.39
72892;BME280;61032;50.782;6.818;2022-12-04T03:56:38;100574.69;;;3.62;66.22
72892;BME280;61032;50.782;6.818;2022-12-04T03:57:43;100578.47;;;3.66;66.61
72892;BME280;61032;50.782;6.818;2022-12-04T03:59:16;100570.34;;;3.66;66.72
72892;BME280;61032;50.782;6.818;2022-12-04T04:00:20;100573.88;;;3.61;66.88
72892;BME280;61032;50.782;6.818;2022-12-04T04:01:27;100577.44;;;3.57;67.56
72892;BME280;61032;50.782;6.818;2022-12-04T04:02:33;100576.88;;;3.60;67.19
72892;BME280;61032;50.782;6.818;2022-12-04T04:03:42;100579.06;;;3.58;67.42
72892;BME280;61032;50.782;6.818;2022-12-04T04:04:47;100573.06;;;3.61;67.28
72892;BME280;61032;50.782;6.818;2022-12-04T04:05:53;100570.38;;;3.56;67.71
72892;BME280;61032;50.782;6.818;2022-12-04T04:07:00;100575.00;;;3.55;66.78
72892;BME280;61032;50.782;6.818;2022-12-04T04:08:04;100575.81;;;3.56;67.23
72892;BME280;61032;50.782;6.818;2022-12-04T04:09:25;100578.31;;;3.52;66.30
72892;BME280;61032;50.782;6.818;2022-12-04T04:10:28;100567.75;;;3.45;66.65
72892;BME280;61032;50.782;6.818;2022-12-04T04:11:34;100567.47;;;3.47;67.08
72892;BME280;61032;50.782;6.818;2022-12-04T04:12:41;100573.97;;;3.51;67.37
72892;BME280;61032;50.782;6.818;2022-12-04T04:13:53;100571.44;;;3.60;66.53
72892;BME280;61032;50.782;6.818;2022-12-04T04:15:14;100568.84;;;3.44;66.61
72892;BME280;61032;50.782;6.818;2022-12-04T04:16:37;100571.03;;;3.42;66.60
72892;BME280;61032;50.782;6.818;2022-12-04T04:17:59;100570.50;;;3.40;66.68
72892;BME280;61032;50.782;6.818;2022-12-04T04:19:20;100563.97;;;3.41;66.63
72892;BME280;61032;50.782;6.818;2022-12-04T04:20:59;100569.47;;;3.31;66.94
72892;BME280;61032;50.782;6.818;2022-12-04T04:22:19;100567.84;;;3.30;66.60
72892;BME280;61032;50.782;6.818;2022-12-04T04:23:42;100574.56;;;3.38;66.36
72892;BME280;61032;50.782;6.818;2022-12-04T04:25:17;100566.44;;;3.33;66.96
72892;BME280;61032;50.782;6.818;2022-12-04T04:26:20;100570.50;;;3.35;67.10
72892;BME280;61032;50.782;6.818;2022-12-04T04:27:21;100572.69;;;3.33;66.55
72892;BME280;61032;50.782;6.818;2022-12-04T04:28:33;100575.94;;;3.35;67.12
72892;BME280;61032;50.782;6.818;2022-12-04T04:29:34;100569.41;;;3.36;67.10
72892;BME280;61032;50.782;6.818;2022-12-04T04:30:34;100567.25;;;3.38;67.19
72892;BME280;61032;50.782;6.818;2022-12-04T04:31:42;100571.84;;;3.38;67.03
72892;BME280;61032;50.782;6.818;2022-12-04T04:32:51;100566.16;;;3.39;67.45
72892;BME280;61032;50.782;6.818;2022-12-04T04:34:07;100570.19;;;3.47;67.27
72892;BME280;61032;50.782;6.818;2022-12-04T04:36:34;100567.47;;;3.47;66.62
72892;BME280;61032;50.782;6.818;2022-12-04T04:37:49;100570.16;;;3.52;67.34
72892;BME280;61032;50.782;6.818;2022-12-04T04:39:01;100562.22;;;3.61;67.00
72892;BME280;61032;50.782;6.818;2022-12-04T04:41:18;100565.28;;;3.49;66.79
72892;BME280;61032;50.782;6.818;2022-12-04T04:42:26;100564.19;;;3.50;67.42
72892;BME280;61032;50.782;6.818;2022-12-04T04:43:37;100562.22;;;3.61;67.16
72892;BME280;61032;50.782;6.818;2022-12-04T04:44:43;100561.13;;;3.57;67.59
72892;BME280;61032;50.782;6.818;2022-12-04T04:45:59;100561.69;;;3.59;66.75
72892;BME280;61032;50.782;6.818;2022-12-04T04:47:05;100549.72;;;3.60;66.60
72892;BME280;61032;50.782;6.818;2022-12-04T04:48:10;100558.69;;;3.60;67.32
72892;BME280;61032;50.782;6.818;2022-12-04T04:49:14;100551.88;;;3.63;66.47
72892;BME280;61032;50.782;6.818;2022-12-04T04:50:17;100561.91;;;3.67;66.51
72892;BME280;61032;50.782;6.818;2022-12-04T04:51:18;100559.75;;;3.59;66.40
72892;BME280;61032;50.782;6.818;2022-12-04T04:52:20;100557.13;;;3.49;66.86
72892;BME280;61032;50.782;6.818;2022-12-04T04:53:24;100559.28;;;3.52;66.82
72892;BME280;61032;50.782;6.818;2022-12-04T04:54:28;100559.75;;;3.59;66.55
72892;BME280;61032;50.782;6.818;2022-12-04T04:55:30;100555.16;;;3.60;66.94
72892;BME280;61032;50.782;6.818;2022-12-04T04:56:46;100558.13;;;3.58;67.23
72892;BME280;61032;50.782;6.818;2022-12-04T04:57:46;100553.53;;;3.59;66.92
72892;BME280;61032;50.782;6.818;2022-12-04T04:58:47;100549.22;;;3.53;66.65
72892;BME280;61032;50.782;6.818;2022-12-04T04:59:47;100551.38;;;3.56;67.04
72892;BME280;61032;50.782;6.818;2022-12-04T05:01:06;100546.47;;;3.58;66.97
72892;BME280;61032;50.782;6.818;2022-12-04T05:02:08;100550.78;;;3.64;66.78
72892;BME280;61032;50.782;6.818;2022-12-04T05:03:08;100550.78;;;3.64;66.37
72892;BME280;61032;50.782;6.818;2022-12-04T05:04:09;100550.25;;;3.62;66.29
72892;BME280;61032;50.782;6.818;2022-12-04T05:05:11;100548.09;;;3.59;66.54
72892;BME280;61032;50.782;6.818;2022-12-04T05:06:11;100545.66;;;3.57;66.23
72892;BME280;61032;50.782;6.818;2022-12-04T05:07:12;100552.28;;;3.41;67.06
72892;BME280;61032;50.782;6.818;2022-12-04T05:08:12;100550.34;;;3.47;67.29
72892;BME280;61032;50.782;6.818;2022-12-04T05:09:12;100548.97;;;3.49;66.92
72892;BME280;61032;50.782;6.818;2022-12-04T05:10:13;100549.53;;;3.46;66.85
72892;BME280;61032;50.782;6.818;2022-12-04T05:11:14;100552.25;;;3.46;66.85
72892;BME280;61032;50.782;6.818;2022-12-04T05:12:15;100546.53;;;3.48;66.27
72892;BME280;61032;50.782;6.818;2022-12-04T05:13:16;100556.31;;;3.49;67.31
72892;BME280;61032;50.782;6.818;2022-12-04T05:14:16;100553.63;;;3.43;67.05
72892;BME280;61032;50.782;6.818;2022-12-04T05:15:17;100541.38;;;3.51;66.78
72892;BME280;61032;50.782;6.818;2022-12-04T05:16:17;100546.66;;;3.27;66.69
72892;BME280;61032;50.782;6.818;2022-12-04T05:17:18;100543.41;;;3.30;67.00
72892;BME280;61032;50.782;6.818;2022-12-04T05:18:18;100545.78;;;3.37;66.76
72892;BME280;61032;50.782;6.818;2022-12-04T05:19:18;100544.38;;;3.44;67.22
72892;BME280;61032;50.782;6.818;2022-12-04T05:20:38;100551.47;;;3.40;67.09
72892;BME280;61032;50.782;6.818;2022-12-04T05:21:38;100552.59;;;3.34;66.93
72892;BME280;61032;50.782;6.818;2022-12-04T05:22:40;100551.22;;;3.37;67.52
72892;BME280;61032;50.782;6.818;2022-12-04T05:23:41;100552.03;;;3.37;67.43
72892;BME280;61032;50.782;6.818;2022-12-04T05:24:41;100562.47;;;3.15;67.45
72892;BME280;61032;50.782;6.818;2022-12-04T05:25:41;100552.97;;;3.13;67.51
72892;BME280;61032;50.782;6.818;2022-12-04T05:26:42;100550.53;;;3.16;66.71
72892;BME280;61032;50.782;6.818;2022-12-04T05:27:42;100548.41;;;3.08;67.71
72892;BME280;61032;50.782;6.818;2022-12-04T05:28:44;100546.72;;;3.12;67.26
72892;BME280;61032;50.782;6.818;2022-12-04T05:29:45;100545.94;;;3.12;67.21
72892;BME280;61032;50.782;6.818;2022-12-04T05:30:53;100550.53;;;3.16;67.06
72892;BME280;61032;50.782;6.818;2022-12-04T05:31:54;100549.75;;;3.10;67.35
72892;BME280;61032;50.782;6.818;2022-12-04T05:32:54;100553.06;;;2.97;67.22
72892;BME280;61032;50.782;6.818;2022-12-04T05:33:55;100553.59;;;2.99;67.63
72892;BME280;61032;50.782;6.818;2022-12-04T05:34:56;100549.22;;;3.08;67.37
72892;BME280;61032;50.782;6.818;2022-12-04T05:36:04;100546.72;;;3.17;67.46
72892;BME280;61032;50.782;6.818;2022-12-04T05:37:05;100544.59;;;3.09;67.42
72892;BME280;61032;50.782;6.818;2022-12-04T05:38:05;100547.34;;;3.04;67.64
72892;BME280;61032;50.782;6.818;2022-12-04T05:39:06;100541.59;;;3.10;67.24
72892;BME280;61032;50.782;6.818;2022-12-04T05:40:07;100548.06;;;3.20;67.65
72892;BME280;61032;50.782;6.818;2022-12-04T05:41:07;100549.13;;;3.24;67.15
72892;BME280;61032;50.782;6.818;2022-12-04T05:42:08;100554.81;;;3.27;67.23
72892;BME280;61032;50.782;6.818;2022-12-04T05:43:08;100542.59;;;3.25;67.24
72892;BME280;61032;50.782;6.818;2022-12-04T05:44:08;100545.63;;;3.18;66.55
72892;BME280;61032;50.782;6.818;2022-12-04T05:45:09;100540.44;;;3.22;67.11
72892;BME280;61032;50.782;6.818;2022-12-04T05:46:09;100534.72;;;3.23;66.66
72892;BME280;61032;50.782;6.818;2022-12-04T05:47:10;100545.03;;;3.26;67.07
72892;BME280;61032;50.782;6.818;2022-12-04T05:48:11;100543.69;;;3.24;66.77
72892;BME280;61032;50.782;6.818;2022-12-04T05:49:11;100537.00;;;3.11;66.69
72892;BME280;61032;50.782;6.818;2022-12-04T05:50:12;100539.41;;;3.13;67.56
72892;BME280;61032;50.782;6.818;2022-12-04T05:51:12;100543.75;;;3.14;67.40
72892;BME280;61032;50.782;6.818;2022-12-04T05:52:13;100548.34;;;3.13;67.08
72892;BME280;61032;50.782;6.818;2022-12-04T05:53:13;100548.06;;;3.15;67.67
72892;BME280;61032;50.782;6.818;2022-12-04T05:54:14;100543.47;;;3.15;67.04
72892;BME280;61032;50.782;6.818;2022-12-04T05:55:14;100545.34;;;3.20;67.31
72892;BME280;61032;50.782;6.818;2022-12-04T05:56:14;100545.84;;;3.27;66.82
72892;BME280;61032;50.782;6.818;2022-12-04T05:57:14;100541.81;;;3.19;67.19
72892;BME280;61032;50.782;6.818;2022-12-04T05:58:15;100535.00;;;3.22;67.40
72892;BME280;61032;50.782;6.818;2022-12-04T05:59:15;100547.75;;;3.26;67.70
72892;BME280;61032;50.782;6.818;2022-12-04T06:00:16;100542.31;;;3.26;67.33
72892;BME280;61032;50.782;6.818;2022-12-04T06:01:20;100548.34;;;3.18;67.27
72892;BME280;61032;50.782;6.818;2022-12-04T06:02:20;100539.72;;;3.11;67.07